sensor_id;sensor_type;location;lat;lon;timestamp;pressure;altitude;pressure_sealevel;temperature;humidity
59274;BME280;45044;41.572;24.730;2023-04-07T00:00:52;90874.53;;;1.67;100.00
59274;BME280;45044;41.572;24.730;2023-04-07T00:03:19;90874.81;;;1.90;100.00
59274;BME280;45044;41.572;24.730;2023-04-07T00:05:47;90876.56;;;1.74;100.00
59274;BME280;45044;41.572;24.730;2023-04-07T00:08:13;90870.59;;;1.86;100.00
59274;BME280;45044;41.572;24.730;2023-04-07T00:10:40;90866.06;;;1.83;100.00
59274;BME280;45044;41.572;24.730;2023-04-07T00:13:07;90874.59;;;1.83;100.00
59274;BME280;45044;41.572;24.730;2023-04-07T00:15:34;90868.91;;;1.77;100.00
59274;BME280;45044;41.572;24.730;2023-04-07T00:18:01;90873.94;;;1.86;100.00
59274;BME280;45044;41.572;24.730;2023-04-07T00:20:27;90850.41;;;1.79;100.00
59274;BME280;45044;41.572;24.730;2023-04-07T00:22:54;90874.31;;;2.01;100.00
59274;BME280;45044;41.572;24.730;2023-04-07T00:25:26;90863.00;;;1.93;100.00
59274;BME280;45044;41.572;24.730;2023-04-07T00:27:53;90864.56;;;2.10;100.00
59274;BME280;45044;41.572;24.730;2023-04-07T00:30:20;90860.97;;;2.15;100.00
59274;BME280;45044;41.572;24.730;2023-04-07T00:32:46;90863.31;;;2.20;100.00
59274;BME280;45044;41.572;24.730;2023-04-07T00:35:13;90868.34;;;2.29;100.00
59274;BME280;45044;41.572;24.730;2023-04-07T00:37:40;90868.44;;;2.33;100.00
59274;BME280;45044;41.572;24.730;2023-04-07T00:40:07;90864.78;;;2.34;100.00
59274;BME280;45044;41.572;24.730;2023-04-07T00:42:34;90867.13;;;2.39;100.00
59274;BME280;45044;41.572;24.730;2023-04-07T00:45:01;90865.63;;;2.38;100.00
59274;BME280;45044;41.572;24.730;2023-04-07T00:47:28;90876.16;;;2.29;100.00
59274;BME280;45044;41.572;24.730;2023-04-07T00:49:54;90865.28;;;2.23;100.00
59274;BME280;45044;41.572;24.730;2023-04-07T00:52:23;90874.13;;;2.22;100.00
59274;BME280;45044;41.572;24.730;2023-04-07T00:54:54;90874.19;;;2.10;100.00
59274;BME280;45044;41.572;24.730;2023-04-07T00:57:21;90870.72;;;2.06;100.00
59274;BME280;45044;41.572;24.730;2023-04-07T00:59:49;90867.75;;;1.91;100.00
59274;BME280;45044;41.572;24.730;2023-04-07T01:02:20;90861.47;;;2.05;100.00
59274;BME280;45044;41.572;24.730;2023-04-07T01:07:33;90870.81;;;1.81;100.00
59274;BME280;45044;41.572;24.730;2023-04-07T01:10:03;90873.44;;;1.68;100.00
59274;BME280;45044;41.572;24.730;2023-04-07T01:12:44;90878.56;;;1.52;100.00
59274;BME280;45044;41.572;24.730;2023-04-07T01:15:14;90869.13;;;1.72;100.00
59274;BME280;45044;41.572;24.730;2023-04-07T01:17:47;90869.09;;;1.85;100.00
59274;BME280;45044;41.572;24.730;2023-04-07T01:20:19;90876.97;;;1.88;100.00
59274;BME280;45044;41.572;24.730;2023-04-07T01:22:53;90871.72;;;2.01;100.00
59274;BME280;45044;41.572;24.730;2023-04-07T01:28:13;90873.75;;;2.08;100.00
59274;BME280;45044;41.572;24.730;2023-04-07T01:30:42;90881.19;;;1.81;100.00
59274;BME280;45044;41.572;24.730;2023-04-07T01:33:11;90884.88;;;1.79;100.00
59274;BME280;45044;41.572;24.730;2023-04-07T01:35:40;90890.88;;;1.84;100.00
59274;BME280;45044;41.572;24.730;2023-04-07T01:38:08;90883.34;;;1.78;100.00
59274;BME280;45044;41.572;24.730;2023-04-07T01:40:37;90884.97;;;1.83;100.00
59274;BME280;45044;41.572;24.730;2023-04-07T01:43:05;90882.16;;;1.88;100.00
59274;BME280;45044;41.572;24.730;2023-04-07T01:45:34;90883.97;;;1.88;100.00
59274;BME280;45044;41.572;24.730;2023-04-07T01:48:04;90884.41;;;1.90;100.00
59274;BME280;45044;41.572;24.730;2023-04-07T01:50:32;90887.84;;;1.94;100.00
59274;BME280;45044;41.572;24.730;2023-04-07T01:53:02;90878.47;;;1.89;100.00
59274;BME280;45044;41.572;24.730;2023-04-07T01:55:30;90881.41;;;1.75;100.00
59274;BME280;45044;41.572;24.730;2023-04-07T01:57:57;90877.13;;;1.67;100.00
59274;BME280;45044;41.572;24.730;2023-04-07T02:00:24;90877.44;;;1.65;100.00
59274;BME280;45044;41.572;24.730;2023-04-07T02:02:54;90881.25;;;1.55;100.00
59274;BME280;45044;41.572;24.730;2023-04-07T02:05:26;90882.94;;;1.64;100.00
59274;BME280;45044;41.572;24.730;2023-04-07T02:07:59;90885.44;;;1.60;100.00
59274;BME280;45044;41.572;24.730;2023-04-07T02:10:28;90893.75;;;1.66;100.00
59274;BME280;45044;41.572;24.730;2023-04-07T02:12:57;90874.00;;;1.61;100.00
59274;BME280;45044;41.572;24.730;2023-04-07T02:15:25;90889.19;;;1.75;100.00
59274;BME280;45044;41.572;24.730;2023-04-07T02:17:56;90879.66;;;1.92;100.00
59274;BME280;45044;41.572;24.730;2023-04-07T02:20:24;90881.19;;;1.81;100.00
59274;BME280;45044;41.572;24.730;2023-04-07T02:22:51;90884.25;;;1.70;100.00
59274;BME280;45044;41.572;24.730;2023-04-07T02:25:27;90878.06;;;1.75;100.00
59274;BME280;45044;41.572;24.730;2023-04-07T02:27:55;90877.91;;;1.96;100.00
59274;BME280;45044;41.572;24.730;2023-04-07T02:30:22;90882.00;;;1.97;100.00
59274;BME280;45044;41.572;24.730;2023-04-07T02:32:50;90877.72;;;1.89;100.00
59274;BME280;45044;41.572;24.730;2023-04-07T02:35:17;90886.63;;;1.63;100.00
59274;BME280;45044;41.572;24.730;2023-04-07T02:37:45;90880.69;;;1.62;100.00
59274;BME280;45044;41.572;24.730;2023-04-07T02:40:12;90892.88;;;1.62;100.00
59274;BME280;45044;41.572;24.730;2023-04-07T02:42:39;90887.59;;;1.71;100.00
59274;BME280;45044;41.572;24.730;2023-04-07T02:45:07;90884.13;;;1.79;100.00
59274;BME280;45044;41.572;24.730;2023-04-07T02:47:35;90897.19;;;1.83;100.00
59274;BME280;45044;41.572;24.730;2023-04-07T02:50:02;90895.06;;;1.60;100.00
59274;BME280;45044;41.572;24.730;2023-04-07T02:52:29;90887.94;;;1.57;100.00
59274;BME280;45044;41.572;24.730;2023-04-07T02:54:56;90902.88;;;1.47;100.00
59274;BME280;45044;41.572;24.730;2023-04-07T02:57:22;90886.22;;;1.48;100.00
59274;BME280;45044;41.572;24.730;2023-04-07T02:59:49;90902.63;;;1.52;100.00
59274;BME280;45044;41.572;24.730;2023-04-07T03:02:18;90899.25;;;1.64;100.00
59274;BME280;45044;41.572;24.730;2023-04-07T03:04:45;90910.59;;;1.72;100.00
59274;BME280;45044;41.572;24.730;2023-04-07T03:07:12;90904.72;;;1.88;100.00
59274;BME280;45044;41.572;24.730;2023-04-07T03:09:38;90904.13;;;1.66;100.00
59274;BME280;45044;41.572;24.730;2023-04-07T03:12:05;90903.28;;;1.49;100.00
59274;BME280;45044;41.572;24.730;2023-04-07T03:14:32;90899.84;;;1.45;100.00
59274;BME280;45044;41.572;24.730;2023-04-07T03:16:58;90904.16;;;1.41;100.00
59274;BME280;45044;41.572;24.730;2023-04-07T03:19:25;90898.88;;;1.25;100.00
59274;BME280;45044;41.572;24.730;2023-04-07T03:21:52;90906.75;;;1.16;100.00
59274;BME280;45044;41.572;24.730;2023-04-07T03:24:19;90907.19;;;1.30;100.00
59274;BME280;45044;41.572;24.730;2023-04-07T03:26:46;90919.47;;;1.46;100.00
59274;BME280;45044;41.572;24.730;2023-04-07T03:29:13;90911.03;;;1.62;100.00
59274;BME280;45044;41.572;24.730;2023-04-07T03:31:39;90906.97;;;1.48;100.00
59274;BME280;45044;41.572;24.730;2023-04-07T03:34:07;90907.06;;;1.52;100.00
59274;BME280;45044;41.572;24.730;2023-04-07T03:36:33;90910.38;;;1.65;100.00
59274;BME280;45044;41.572;24.730;2023-04-07T03:39:00;90916.22;;;1.62;100.00
59274;BME280;45044;41.572;24.730;2023-04-07T03:41:27;90919.34;;;1.67;100.00
59274;BME280;45044;41.572;24.730;2023-04-07T03:43:53;90919.34;;;1.67;100.00
59274;BME280;45044;41.572;24.730;2023-04-07T03:46:21;90914.72;;;1.48;100.00
59274;BME280;45044;41.572;24.730;2023-04-07T03:48:48;90918.59;;;1.42;100.00
59274;BME280;45044;41.572;24.730;2023-04-07T03:51:16;90925.75;;;1.45;100.00
59274;BME280;45044;41.572;24.730;2023-04-07T03:53:43;90924.56;;;1.42;100.00
59274;BME280;45044;41.572;24.730;2023-04-07T03:56:09;90925.41;;;1.47;100.00
59274;BME280;45044;41.572;24.730;2023-04-07T03:58:36;90927.47;;;1.41;100.00
59274;BME280;45044;41.572;24.730;2023-04-07T04:01:04;90937.94;;;1.57;100.00
59274;BME280;45044;41.572;24.730;2023-04-07T04:03:31;90943.34;;;1.52;100.00
59274;BME280;45044;41.572;24.730;2023-04-07T04:05:58;90933.28;;;1.63;100.00
59274;BME280;45044;41.572;24.730;2023-04-07T04:08:24;90935.88;;;1.63;100.00
59274;BME280;45044;41.572;24.730;2023-04-07T04:10:51;90939.44;;;1.58;100.00
59274;BME280;45044;41.572;24.730;2023-04-07T04:13:18;90930.38;;;1.52;100.00
59274;BME280;45044;41.572;24.730;2023-04-07T04:15:50;90934.81;;;1.39;100.00
59274;BME280;45044;41.572;24.730;2023-04-07T04:18:18;90944.94;;;1.31;100.00
59274;BME280;45044;41.572;24.730;2023-04-07T04:20:44;90947.44;;;1.40;100.00
59274;BME280;45044;41.572;24.730;2023-04-07T04:23:11;90938.50;;;1.38;100.00
59274;BME280;45044;41.572;24.730;2023-04-07T04:25:38;90941.63;;;1.43;100.00
59274;BME280;45044;41.572;24.730;2023-04-07T04:28:07;90952.31;;;1.54;100.00
59274;BME280;45044;41.572;24.730;2023-04-07T04:30:34;90946.03;;;1.55;100.00
59274;BME280;45044;41.572;24.730;2023-04-07T04:33:01;90955.63;;;1.67;100.00
59274;BME280;45044;41.572;24.730;2023-04-07T04:35:28;90955.94;;;1.78;100.00
59274;BME280;45044;41.572;24.730;2023-04-07T04:37:55;90951.31;;;1.72;100.00
59274;BME280;45044;41.572;24.730;2023-04-07T04:40:22;90960.16;;;1.83;100.00
59274;BME280;45044;41.572;24.730;2023-04-07T04:42:48;90961.88;;;1.79;100.00
59274;BME280;45044;41.572;24.730;2023-04-07T04:45:16;90962.75;;;1.71;100.00
59274;BME280;45044;41.572;24.730;2023-04-07T04:47:43;90960.28;;;1.74;100.00
59274;BME280;45044;41.572;24.730;2023-04-07T04:50:11;90970.84;;;1.82;100.00
59274;BME280;45044;41.572;24.730;2023-04-07T04:52:38;90968.69;;;1.71;100.00
59274;BME280;45044;41.572;24.730;2023-04-07T04:55:06;90971.06;;;1.64;100.00
59274;BME280;45044;41.572;24.730;2023-04-07T04:57:32;90968.03;;;1.62;100.00
59274;BME280;45044;41.572;24.730;2023-04-07T05:00:02;90974.09;;;1.66;100.00
59274;BME280;45044;41.572;24.730;2023-04-07T05:02:29;90969.34;;;1.55;100.00
59274;BME280;45044;41.572;24.730;2023-04-07T05:04:56;90969.53;;;1.75;100.00
59274;BME280;45044;41.572;24.730;2023-04-07T05:07:24;90977.22;;;1.72;100.00
59274;BME280;45044;41.572;24.730;2023-04-07T05:09:50;90976.13;;;1.73;100.00
59274;BME280;45044;41.572;24.730;2023-04-07T05:12:18;90975.28;;;1.69;100.00
59274;BME280;45044;41.572;24.730;2023-04-07T05:14:44;90984.88;;;1.81;100.00
59274;BME280;45044;41.572;24.730;2023-04-07T05:17:11;90986.94;;;1.50;100.00
59274;BME280;45044;41.572;24.730;2023-04-07T05:19:38;90996.75;;;1.57;100.00
59274;BME280;45044;41.572;24.730;2023-04-07T05:22:04;90995.81;;;1.49;100.00
59274;BME280;45044;41.572;24.730;2023-04-07T05:24:31;90995.91;;;1.52;100.00
59274;BME280;45044;41.572;24.730;2023-04-07T05:26:58;90995.69;;;1.70;100.00
59274;BME280;45044;41.572;24.730;2023-04-07T05:29:24;91002.16;;;1.76;100.00
59274;BME280;45044;41.572;24.730;2023-04-07T05:31:51;91004.31;;;1.87;100.00
59274;BME280;45044;41.572;24.730;2023-04-07T05:34:18;91005.81;;;2.00;100.00
59274;BME280;45044;41.572;24.730;2023-04-07T05:36:45;91005.56;;;2.06;100.00
59274;BME280;45044;41.572;24.730;2023-04-07T05:39:11;91001.06;;;2.02;100.00
59274;BME280;45044;41.572;24.730;2023-04-07T05:41:38;91006.88;;;2.12;100.00
59274;BME280;45044;41.572;24.730;2023-04-07T05:44:05;91001.09;;;2.31;100.00
59274;BME280;45044;41.572;24.730;2023-04-07T05:46:32;90993.69;;;2.17;100.00
59274;BME280;45044;41.572;24.730;2023-04-07T05:48:59;91010.66;;;2.56;100.00
59274;BME280;45044;41.572;24.730;2023-04-07T05:51:44;91004.41;;;2.44;100.00
59274;BME280;45044;41.572;24.730;2023-04-07T05:54:13;91003.78;;;2.35;100.00
59274;BME280;45044;41.572;24.730;2023-04-07T05:56:40;91005.50;;;2.43;100.00
59274;BME280;45044;41.572;24.730;2023-04-07T05:59:06;91004.56;;;2.64;100.00
59274;BME280;45044;41.572;24.730;2023-04-07T06:01:33;91003.06;;;2.63;100.00
59274;BME280;45044;41.572;24.730;2023-04-07T06:04:00;91009.59;;;2.73;100.00
59274;BME280;45044;41.572;24.730;2023-04-07T06:06:29;91013.09;;;2.93;100.00
59274;BME280;45044;41.572;24.730;2023-04-07T06:08:56;90984.88;;;2.92;100.00
59274;BME280;45044;41.572;24.730;2023-04-07T06:11:24;91010.50;;;2.93;100.00
59274;BME280;45044;41.572;24.730;2023-04-07T06:13:51;91019.72;;;2.91;100.00
59274;BME280;45044;41.572;24.730;2023-04-07T06:16:18;91017.53;;;2.93;100.00
59274;BME280;45044;41.572;24.730;2023-04-07T06:18:45;91015.44;;;2.98;100.00
59274;BME280;45044;41.572;24.730;2023-04-07T06:21:12;91034.91;;;2.76;100.00
59274;BME280;45044;41.572;24.730;2023-04-07T06:23:39;91031.19;;;2.61;100.00
59274;BME280;45044;41.572;24.730;2023-04-07T06:26:09;91025.66;;;2.91;100.00
59274;BME280;45044;41.572;24.730;2023-04-07T06:28:37;91041.22;;;2.91;100.00
59274;BME280;45044;41.572;24.730;2023-04-07T06:31:05;91030.59;;;2.96;100.00
59274;BME280;45044;41.572;24.730;2023-04-07T06:33:32;91037.38;;;2.85;100.00
59274;BME280;45044;41.572;24.730;2023-04-07T06:36:01;91045.81;;;2.82;100.00
59274;BME280;45044;41.572;24.730;2023-04-07T06:38:28;91016.13;;;2.67;100.00
59274;BME280;45044;41.572;24.730;2023-04-07T06:40:54;91043.31;;;3.14;100.00
59274;BME280;45044;41.572;24.730;2023-04-07T06:43:21;91023.94;;;3.28;100.00
59274;BME280;45044;41.572;24.730;2023-04-07T06:45:48;91046.53;;;3.40;100.00
59274;BME280;45044;41.572;24.730;2023-04-07T06:48:15;91043.31;;;3.30;100.00
59274;BME280;45044;41.572;24.730;2023-04-07T06:50:45;91056.72;;;3.16;100.00
59274;BME280;45044;41.572;24.730;2023-04-07T06:53:12;91053.69;;;3.14;100.00
59274;BME280;45044;41.572;24.730;2023-04-07T06:55:39;91059.13;;;3.09;100.00
59274;BME280;45044;41.572;24.730;2023-04-07T06:58:07;91055.00;;;3.08;100.00
59274;BME280;45044;41.572;24.730;2023-04-07T07:00:34;91054.97;;;3.37;100.00
59274;BME280;45044;41.572;24.730;2023-04-07T07:03:01;91060.06;;;3.33;100.00
59274;BME280;45044;41.572;24.730;2023-04-07T07:05:28;91063.94;;;3.39;100.00
59274;BME280;45044;41.572;24.730;2023-04-07T07:07:55;91066.38;;;3.32;100.00
59274;BME280;45044;41.572;24.730;2023-04-07T07:10:22;91022.84;;;3.13;100.00
59274;BME280;45044;41.572;24.730;2023-04-07T07:12:50;91069.00;;;3.64;100.00
59274;BME280;45044;41.572;24.730;2023-04-07T07:15:17;91070.09;;;3.47;100.00
59274;BME280;45044;41.572;24.730;2023-04-07T07:17:43;91078.47;;;3.56;100.00
59274;BME280;45044;41.572;24.730;2023-04-07T07:20:10;91040.47;;;3.19;100.00
59274;BME280;45044;41.572;24.730;2023-04-07T07:22:37;91071.50;;;3.44;100.00
59274;BME280;45044;41.572;24.730;2023-04-07T07:25:04;91079.81;;;3.50;100.00
59274;BME280;45044;41.572;24.730;2023-04-07T07:27:31;91077.72;;;3.56;100.00
59274;BME280;45044;41.572;24.730;2023-04-07T07:29:58;91082.75;;;3.49;100.00
59274;BME280;45044;41.572;24.730;2023-04-07T07:32:25;91093.38;;;3.43;100.00
59274;BME280;45044;41.572;24.730;2023-04-07T07:34:52;91086.50;;;3.51;100.00
59274;BME280;45044;41.572;24.730;2023-04-07T07:37:18;91097.50;;;3.44;100.00
59274;BME280;45044;41.572;24.730;2023-04-07T07:39:45;91089.03;;;3.64;100.00
59274;BME280;45044;41.572;24.730;2023-04-07T07:42:12;91086.13;;;3.65;100.00
59274;BME280;45044;41.572;24.730;2023-04-07T07:44:39;91094.41;;;3.71;100.00
59274;BME280;45044;41.572;24.730;2023-04-07T07:47:05;91101.22;;;3.76;100.00
59274;BME280;45044;41.572;24.730;2023-04-07T07:49:32;91098.19;;;3.90;100.00
59274;BME280;45044;41.572;24.730;2023-04-07T07:51:59;91089.31;;;4.07;100.00
59274;BME280;45044;41.572;24.730;2023-04-07T07:54:26;91098.63;;;3.76;100.00
59274;BME280;45044;41.572;24.730;2023-04-07T07:56:52;91103.97;;;3.83;100.00
59274;BME280;45044;41.572;24.730;2023-04-07T07:59:19;91104.16;;;3.74;100.00
59274;BME280;45044;41.572;24.730;2023-04-07T08:01:46;91105.06;;;3.82;100.00
59274;BME280;45044;41.572;24.730;2023-04-07T08:04:14;91101.63;;;3.94;100.00
59274;BME280;45044;41.572;24.730;2023-04-07T08:06:41;91104.66;;;4.12;100.00
59274;BME280;45044;41.572;24.730;2023-04-07T08:09:08;91110.13;;;4.07;100.00
59274;BME280;45044;41.572;24.730;2023-04-07T08:11:35;91100.03;;;4.22;100.00
59274;BME280;45044;41.572;24.730;2023-04-07T08:14:02;91109.41;;;4.62;100.00
59274;BME280;45044;41.572;24.730;2023-04-07T08:16:29;91099.97;;;4.54;100.00
59274;BME280;45044;41.572;24.730;2023-04-07T08:18:57;91103.06;;;4.43;100.00
59274;BME280;45044;41.572;24.730;2023-04-07T08:21:23;91103.94;;;4.67;100.00
59274;BME280;45044;41.572;24.730;2023-04-07T08:23:52;91092.34;;;4.45;100.00
59274;BME280;45044;41.572;24.730;2023-04-07T08:26:19;91098.13;;;4.38;100.00
59274;BME280;45044;41.572;24.730;2023-04-07T08:28:48;91102.78;;;4.13;100.00
59274;BME280;45044;41.572;24.730;2023-04-07T08:31:17;91114.56;;;4.06;100.00
59274;BME280;45044;41.572;24.730;2023-04-07T08:33:44;91101.88;;;4.05;100.00
59274;BME280;45044;41.572;24.730;2023-04-07T08:36:11;91106.81;;;4.10;100.00
59274;BME280;45044;41.572;24.730;2023-04-07T08:38:38;91106.84;;;3.94;100.00
59274;BME280;45044;41.572;24.730;2023-04-07T08:41:12;91108.00;;;3.97;100.00
59274;BME280;45044;41.572;24.730;2023-04-07T08:43:43;91105.03;;;4.30;100.00
59274;BME280;45044;41.572;24.730;2023-04-07T08:46:13;91108.31;;;4.99;100.00
59274;BME280;45044;41.572;24.730;2023-04-07T08:48:43;91108.78;;;5.25;100.00
59274;BME280;45044;41.572;24.730;2023-04-07T08:51:11;91103.38;;;5.14;100.00
59274;BME280;45044;41.572;24.730;2023-04-07T08:53:47;91102.75;;;5.21;100.00
59274;BME280;45044;41.572;24.730;2023-04-07T08:56:17;91110.97;;;5.23;100.00
59274;BME280;45044;41.572;24.730;2023-04-07T08:58:46;91111.78;;;4.87;100.00
59274;BME280;45044;41.572;24.730;2023-04-07T09:01:14;91110.00;;;5.31;100.00
59274;BME280;45044;41.572;24.730;2023-04-07T09:03:43;91096.88;;;5.71;100.00
59274;BME280;45044;41.572;24.730;2023-04-07T09:06:11;91100.22;;;7.30;100.00
59274;BME280;45044;41.572;24.730;2023-04-07T09:08:38;91097.00;;;8.39;100.00
59274;BME280;45044;41.572;24.730;2023-04-07T09:11:05;91095.81;;;8.29;100.00
59274;BME280;45044;41.572;24.730;2023-04-07T09:13:32;91099.63;;;7.90;100.00
59274;BME280;45044;41.572;24.730;2023-04-07T09:16:02;91098.13;;;7.89;100.00
59274;BME280;45044;41.572;24.730;2023-04-07T09:18:29;91093.97;;;7.42;100.00
59274;BME280;45044;41.572;24.730;2023-04-07T09:21:04;91098.72;;;7.71;100.00
59274;BME280;45044;41.572;24.730;2023-04-07T09:23:38;91098.91;;;7.93;100.00
59274;BME280;45044;41.572;24.730;2023-04-07T09:26:26;91092.00;;;8.19;100.00
59274;BME280;45044;41.572;24.730;2023-04-07T09:28:56;91104.97;;;7.59;100.00
59274;BME280;45044;41.572;24.730;2023-04-07T09:31:23;91097.88;;;7.25;100.00
59274;BME280;45044;41.572;24.730;2023-04-07T09:34:31;91094.53;;;7.25;100.00
59274;BME280;45044;41.572;24.730;2023-04-07T09:36:58;91088.50;;;6.86;100.00
59274;BME280;45044;41.572;24.730;2023-04-07T09:39:25;91089.97;;;6.29;100.00
59274;BME280;45044;41.572;24.730;2023-04-07T09:41:52;91090.06;;;6.37;100.00
59274;BME280;45044;41.572;24.730;2023-04-07T09:44:23;91095.84;;;5.99;100.00
59274;BME280;45044;41.572;24.730;2023-04-07T09:46:55;91099.63;;;6.52;100.00
59274;BME280;45044;41.572;24.730;2023-04-07T09:49:24;91097.59;;;6.69;100.00
59274;BME280;45044;41.572;24.730;2023-04-07T09:52:02;91096.31;;;6.55;100.00
59274;BME280;45044;41.572;24.730;2023-04-07T09:54:38;91093.94;;;6.74;100.00
59274;BME280;45044;41.572;24.730;2023-04-07T09:57:07;91097.25;;;6.70;100.00
59274;BME280;45044;41.572;24.730;2023-04-07T09:59:40;91100.66;;;7.05;100.00
59274;BME280;45044;41.572;24.730;2023-04-07T10:02:08;91104.34;;;6.43;100.00
59274;BME280;45044;41.572;24.730;2023-04-07T10:04:35;91111.88;;;6.75;100.00
59274;BME280;45044;41.572;24.730;2023-04-07T10:07:03;91106.50;;;6.95;100.00
59274;BME280;45044;41.572;24.730;2023-04-07T10:09:30;91111.25;;;6.86;100.00
59274;BME280;45044;41.572;24.730;2023-04-07T10:11:58;91112.53;;;6.68;100.00
59274;BME280;45044;41.572;24.730;2023-04-07T10:14:32;91119.19;;;6.66;100.00
59274;BME280;45044;41.572;24.730;2023-04-07T10:17:00;91110.00;;;5.98;100.00
59274;BME280;45044;41.572;24.730;2023-04-07T10:19:30;91112.75;;;6.05;100.00
59274;BME280;45044;41.572;24.730;2023-04-07T10:22:01;91110.47;;;5.80;100.00
59274;BME280;45044;41.572;24.730;2023-04-07T10:24:53;91080.03;;;5.88;100.00
59274;BME280;45044;41.572;24.730;2023-04-07T10:27:26;91104.81;;;6.02;100.00
59274;BME280;45044;41.572;24.730;2023-04-07T10:29:55;91114.81;;;5.72;100.00
59274;BME280;45044;41.572;24.730;2023-04-07T10:32:24;91120.41;;;5.74;100.00
59274;BME280;45044;41.572;24.730;2023-04-07T10:37:21;91113.53;;;5.86;100.00
59274;BME280;45044;41.572;24.730;2023-04-07T10:45:05;91114.41;;;6.41;100.00
59274;BME280;45044;41.572;24.730;2023-04-07T10:47:32;91123.50;;;7.09;100.00
59274;BME280;45044;41.572;24.730;2023-04-07T10:52:46;91117.22;;;7.17;100.00
59274;BME280;45044;41.572;24.730;2023-04-07T10:58:24;91115.69;;;7.12;100.00
59274;BME280;45044;41.572;24.730;2023-04-07T11:03:54;91106.34;;;6.53;100.00
59274;BME280;45044;41.572;24.730;2023-04-07T11:06:22;91100.72;;;6.51;100.00
59274;BME280;45044;41.572;24.730;2023-04-07T11:08:49;91099.91;;;6.74;100.00
59274;BME280;45044;41.572;24.730;2023-04-07T11:11:35;91106.97;;;6.43;100.00
59274;BME280;45044;41.572;24.730;2023-04-07T11:14:05;91108.72;;;6.35;100.00
59274;BME280;45044;41.572;24.730;2023-04-07T11:16:40;91108.72;;;6.62;100.00
59274;BME280;45044;41.572;24.730;2023-04-07T11:19:08;91104.75;;;6.72;100.00
59274;BME280;45044;41.572;24.730;2023-04-07T11:21:35;91104.66;;;7.64;100.00
59274;BME280;45044;41.572;24.730;2023-04-07T11:24:02;91098.34;;;7.35;94.16
59274;BME280;45044;41.572;24.730;2023-04-07T11:26:29;91109.06;;;7.60;93.14
59274;BME280;45044;41.572;24.730;2023-04-07T11:29:02;91098.88;;;7.89;92.52
59274;BME280;45044;41.572;24.730;2023-04-07T11:31:29;91092.97;;;8.00;78.45
59274;BME280;45044;41.572;24.730;2023-04-07T11:34:01;91084.75;;;7.98;94.87
59274;BME280;45044;41.572;24.730;2023-04-07T11:36:33;91087.59;;;7.82;98.08
59274;BME280;45044;41.572;24.730;2023-04-07T11:39:01;91093.66;;;7.89;100.00
59274;BME280;45044;41.572;24.730;2023-04-07T11:41:30;91090.59;;;7.07;86.28
59274;BME280;45044;41.572;24.730;2023-04-07T11:44:11;91095.16;;;6.83;88.88
59274;BME280;45044;41.572;24.730;2023-04-07T11:47:04;91085.78;;;7.48;100.00
59274;BME280;45044;41.572;24.730;2023-04-07T11:49:31;91098.06;;;7.82;98.17
59274;BME280;45044;41.572;24.730;2023-04-07T11:52:03;91096.28;;;6.82;75.90
59274;BME280;45044;41.572;24.730;2023-04-07T11:54:43;91087.06;;;7.23;95.04
59274;BME280;45044;41.572;24.730;2023-04-07T11:57:27;91100.66;;;7.40;94.57
59274;BME280;45044;41.572;24.730;2023-04-07T12:00:11;91095.75;;;6.69;100.00
59274;BME280;45044;41.572;24.730;2023-04-07T12:02:38;91086.84;;;6.47;98.11
59274;BME280;45044;41.572;24.730;2023-04-07T12:05:06;91103.75;;;6.84;100.00
59274;BME280;45044;41.572;24.730;2023-04-07T12:07:36;91095.75;;;7.00;100.00
59274;BME280;45044;41.572;24.730;2023-04-07T12:10:23;91090.19;;;7.40;100.00
59274;BME280;45044;41.572;24.730;2023-04-07T12:12:53;91091.88;;;7.21;100.00
59274;BME280;45044;41.572;24.730;2023-04-07T12:15:22;91095.25;;;7.25;100.00
59274;BME280;45044;41.572;24.730;2023-04-07T12:17:49;91084.09;;;7.66;100.00
59274;BME280;45044;41.572;24.730;2023-04-07T12:20:16;91089.78;;;7.34;100.00
59274;BME280;45044;41.572;24.730;2023-04-07T12:22:43;91079.16;;;7.19;100.00
59274;BME280;45044;41.572;24.730;2023-04-07T12:25:09;91080.50;;;6.75;100.00
59274;BME280;45044;41.572;24.730;2023-04-07T12:27:36;91081.72;;;6.54;100.00
59274;BME280;45044;41.572;24.730;2023-04-07T12:30:09;91054.00;;;6.73;100.00
59274;BME280;45044;41.572;24.730;2023-04-07T12:32:37;91084.81;;;7.63;100.00
59274;BME280;45044;41.572;24.730;2023-04-07T12:35:05;91068.34;;;8.05;100.00
59274;BME280;45044;41.572;24.730;2023-04-07T12:37:32;91088.94;;;8.62;100.00
59274;BME280;45044;41.572;24.730;2023-04-07T12:39:59;91074.13;;;8.29;91.36
59274;BME280;45044;41.572;24.730;2023-04-07T12:42:33;91071.72;;;8.65;100.00
59274;BME280;45044;41.572;24.730;2023-04-07T12:45:01;91087.13;;;8.14;86.68
59274;BME280;45044;41.572;24.730;2023-04-07T12:47:29;91070.50;;;7.95;100.00
59274;BME280;45044;41.572;24.730;2023-04-07T12:49:56;91068.56;;;8.37;81.13
59274;BME280;45044;41.572;24.730;2023-04-07T12:52:23;91065.66;;;8.54;99.97
59274;BME280;45044;41.572;24.730;2023-04-07T12:54:50;91072.53;;;8.77;97.50
59274;BME280;45044;41.572;24.730;2023-04-07T12:57:16;91068.53;;;8.30;93.25
59274;BME280;45044;41.572;24.730;2023-04-07T12:59:43;91065.22;;;7.88;78.03
59274;BME280;45044;41.572;24.730;2023-04-07T13:02:10;91051.06;;;7.96;89.16
59274;BME280;45044;41.572;24.730;2023-04-07T13:04:39;91055.94;;;8.54;100.00
59274;BME280;45044;41.572;24.730;2023-04-07T13:07:08;91058.47;;;9.14;100.00
59274;BME280;45044;41.572;24.730;2023-04-07T13:09:35;91060.66;;;8.97;89.80
59274;BME280;45044;41.572;24.730;2023-04-07T13:12:02;91036.59;;;8.73;83.26
59274;BME280;45044;41.572;24.730;2023-04-07T13:14:29;91042.28;;;8.86;77.84
59274;BME280;45044;41.572;24.730;2023-04-07T13:16:56;91049.88;;;8.43;84.02
59274;BME280;45044;41.572;24.730;2023-04-07T13:19:22;91052.56;;;8.54;87.02